Columbus, North Carolina
Current Conditions -  °F | °C
As of 10:55 PM on Saturday 25 Oct 2014 (Local Time) from KFQD Reporting Station
Clear Clear  
Wind Chill: 51°   Ceiling: Unl
Heat Index: 51°   Visibility: 10mi
Dew Point: 47°   Wind: 6mph
Humidity: 83%   Direction: 320°NW
Pressure: 29.97"   Gusts: NA
Location:  35.25°N, 82.2°W
Report Text: KFQD 260255Z AUTO 32005KT 10SM CLR 11/08 A2997 RMK AO2 T01080081
Loading
Personal Weather Stations






























Interactive Weather Map
Tropical Storm Tracking
New forecast layout! Learn more

10-Day Weather Forecast

Advertisements
Track Severe Weather on mobile